Airport View

Enter AWOS ICAO identifier for current METAR.

ex. KFNL

KLAS 261156Z 18011KT 10SM CLR 27/03 A2980 RMK AO2 SLP060 T02670028 10306 20261 53003

26 Jun 2019 12:16

Phone: 702-736-1416

Other Area AWOS: KHND - KVGT - KLSV - KBVU

TAF AMD KLAS 261207Z 2612/2718 16012KT P6SM FEW250 FM261800 18015G26KT P6SM SCT250 FM270400 20012KT P6SM SCT250